createdAt,value
2022-08-04T00:00:40.432Z,98081.44
2022-08-04T00:03:27.675Z,98082.78
2022-08-04T00:06:05.462Z,98078.50
2022-08-04T00:08:42.117Z,98079.19
2022-08-04T00:11:15.376Z,98077.41
2022-08-04T00:14:02.303Z,98079.34
2022-08-04T00:16:38.704Z,98076.09
2022-08-04T00:19:30.490Z,98081.47
2022-08-04T00:22:01.010Z,98080.28
2022-08-04T00:24:30.188Z,98079.81
2022-08-04T00:26:57.267Z,98085.78
2022-08-04T00:29:24.599Z,98080.72
2022-08-04T00:31:56.443Z,98078.69
2022-08-04T00:34:28.523Z,98076.25
2022-08-04T00:36:55.740Z,98077.88
2022-08-04T00:39:23.094Z,98074.59
2022-08-04T00:42:19.108Z,98082.44
2022-08-04T00:45:17.707Z,98067.06
2022-08-04T00:48:10.717Z,98072.22
2022-08-04T00:50:42.676Z,98075.50
2022-08-04T00:53:28.004Z,98076.97
2022-08-04T00:56:08.922Z,98075.50
2022-08-04T00:59:09.664Z,98085.19
2022-08-04T01:01:52.848Z,98089.53
2022-08-04T01:04:42.162Z,98079.53
2022-08-04T01:07:46.417Z,98084.59
2022-08-04T01:10:42.254Z,98080.28
2022-08-04T01:13:25.632Z,98073.03
2022-08-04T01:15:56.354Z,98080.88
2022-08-04T01:18:33.512Z,98080.94
2022-08-04T01:21:11.256Z,98080.56
2022-08-04T01:24:07.526Z,98074.09
2022-08-04T01:26:57.682Z,98069.97
2022-08-04T01:29:33.683Z,98077.75
2022-08-04T01:32:21.072Z,98066.09
2022-08-04T01:34:56.904Z,98069.91
2022-08-04T01:37:41.841Z,98065.06
2022-08-04T01:40:08.784Z,98073.41
2022-08-04T01:42:36.944Z,98068.19
2022-08-04T01:45:08.423Z,98067.50
2022-08-04T01:47:37.752Z,98069.13
2022-08-04T01:50:12.391Z,98066.91
2022-08-04T01:52:40.609Z,98070.63
2022-08-04T01:55:10.192Z,98076.31
2022-08-04T01:57:45.931Z,98073.69
2022-08-04T02:00:17.896Z,98067.34
2022-08-04T02:02:45.768Z,98069.78
2022-08-04T02:05:15.512Z,98068.38
2022-08-04T02:08:01.298Z,98067.94
2022-08-04T02:10:44.133Z,98060.94
2022-08-04T02:13:33.551Z,98063.41
2022-08-04T02:16:04.159Z,98062.34
2022-08-04T02:18:41.557Z,98062.59
2022-08-04T02:21:08.297Z,98053.47
2022-08-04T02:23:37.279Z,98056.63
2022-08-04T02:26:05.934Z,98055.81
2022-08-04T02:28:36.170Z,98052.66
2022-08-04T02:31:19.589Z,98054.25
2022-08-04T02:33:52.734Z,98054.34
2022-08-04T02:36:29.568Z,98055.72
2022-08-04T02:38:59.524Z,98049.13
2022-08-04T02:41:28.177Z,98049.03
2022-08-04T02:44:02.520Z,98049.03
2022-08-04T02:46:30.278Z,98046.03
2022-08-04T02:48:57.454Z,98050.31
2022-08-04T02:51:28.873Z,98044.00
2022-08-04T02:53:57.824Z,98041.44
2022-08-04T02:56:26.704Z,98047.47
2022-08-04T02:58:58.435Z,98043.59
2022-08-04T03:01:25.263Z,98046.16
2022-08-04T03:04:00.695Z,98049.13
2022-08-04T03:06:42.336Z,98044.09
2022-08-04T03:09:24.703Z,98043.53
2022-08-04T03:11:51.138Z,98043.38
2022-08-04T03:14:51.667Z,98038.22
2022-08-04T03:17:53.103Z,98041.97
2022-08-04T03:20:50.591Z,98037.50
2022-08-04T03:23:40.303Z,98045.97
2022-08-04T03:26:25.192Z,98041.22
2022-08-04T03:29:36.067Z,98051.41
2022-08-04T03:32:12.995Z,98045.16
2022-08-04T03:34:42.097Z,98051.47
2022-08-04T03:37:15.539Z,98054.63
2022-08-04T03:40:12.803Z,98061.22
2022-08-04T03:42:51.634Z,98068.66
2022-08-04T03:45:41.697Z,98059.66
2022-08-04T03:48:44.785Z,98065.47
2022-08-04T03:51:51.672Z,98070.50
2022-08-04T03:54:32.507Z,98065.78
2022-08-04T03:57:21.006Z,98064.97
2022-08-04T03:59:57.280Z,98064.16
2022-08-04T04:03:00.151Z,98073.66
2022-08-04T04:05:29.913Z,98064.59
2022-08-04T04:08:45.197Z,98068.09
2022-08-04T04:11:34.771Z,98061.47
2022-08-04T04:14:48.271Z,98067.03
2022-08-04T04:17:20.858Z,98065.59
2022-08-04T04:20:00.622Z,98069.25
2022-08-04T04:22:51.426Z,98062.66
2022-08-04T04:25:27.063Z,98073.38
2022-08-04T04:28:44.693Z,98060.72
2022-08-04T04:31:43.609Z,98056.53
2022-08-04T04:34:25.424Z,98055.84
2022-08-04T04:37:13.260Z,98065.25
2022-08-04T04:39:51.899Z,98062.09
2022-08-04T04:42:39.535Z,98064.81
2022-08-04T04:45:23.448Z,98058.94
2022-08-04T04:48:07.742Z,98060.03
2022-08-04T04:50:54.689Z,98064.25
2022-08-04T04:53:29.957Z,98062.38
2022-08-04T04:56:30.996Z,98067.91
2022-08-04T04:58:58.595Z,98068.94
2022-08-04T05:02:09.667Z,98070.66
2022-08-04T05:04:55.121Z,98073.19
2022-08-04T05:07:38.070Z,98066.34
2022-08-04T05:10:38.660Z,98074.16
2022-08-04T05:14:35.211Z,98075.00
2022-08-04T05:16:56.310Z,98074.13
2022-08-04T05:19:34.898Z,98077.09
2022-08-04T05:22:09.188Z,98071.25
2022-08-04T05:24:39.504Z,98077.56
2022-08-04T05:27:15.712Z,98070.44
2022-08-04T05:29:50.285Z,98079.44
2022-08-04T05:32:18.005Z,98071.25
2022-08-04T05:34:49.653Z,98070.56
2022-08-04T05:37:17.674Z,98079.91
2022-08-04T05:39:58.919Z,98073.75
2022-08-04T05:42:26.382Z,98069.22
2022-08-04T05:44:53.546Z,98073.34
2022-08-04T05:47:22.406Z,98071.13
2022-08-04T05:50:01.334Z,98074.66
2022-08-04T05:52:29.751Z,98075.97
2022-08-04T05:54:57.099Z,98076.66
2022-08-04T05:57:24.915Z,98077.28
2022-08-04T05:59:52.183Z,98074.72
2022-08-04T06:02:19.424Z,98081.28
2022-08-04T06:04:49.344Z,98082.78
2022-08-04T06:07:16.163Z,98078.13
2022-08-04T06:09:42.985Z,98080.22
2022-08-04T06:12:22.213Z,98081.25
2022-08-04T06:14:52.889Z,98081.25
2022-08-04T06:19:56.722Z,98083.66
2022-08-04T06:20:19.930Z,98081.81
2022-08-04T06:22:53.057Z,98082.25
2022-08-04T06:25:22.841Z,98079.84
2022-08-04T06:27:50.074Z,98086.84
2022-08-04T06:30:19.230Z,98086.78
2022-08-04T06:33:03.351Z,98085.06
2022-08-04T06:35:32.854Z,98093.56
2022-08-04T06:38:01.157Z,98085.97
2022-08-04T06:40:30.822Z,98078.34
2022-08-04T06:43:04.404Z,98079.41
2022-08-04T06:45:34.123Z,98075.31
2022-08-04T06:48:01.057Z,98080.09
2022-08-04T06:51:28.658Z,98079.31
2022-08-04T06:53:14.945Z,98082.03
2022-08-04T06:55:45.494Z,98075.22
2022-08-04T06:58:13.175Z,98084.84
2022-08-04T07:00:42.157Z,98080.38
2022-08-04T07:03:08.795Z,98078.28
2022-08-04T07:05:35.991Z,98077.59
2022-08-04T07:08:03.241Z,98086.00
2022-08-04T07:10:31.417Z,98077.88
2022-08-04T07:12:59.180Z,98074.72
2022-08-04T07:15:26.453Z,98079.66
2022-08-04T07:17:54.018Z,98085.53
2022-08-04T07:20:35.289Z,98079.34
2022-08-04T07:23:06.596Z,98077.56
2022-08-04T07:25:58.843Z,98077.94
2022-08-04T07:28:26.789Z,98070.72
2022-08-04T07:30:54.752Z,98073.69
2022-08-04T07:33:22.153Z,98075.44
2022-08-04T07:36:06.039Z,98072.16
2022-08-04T07:38:48.621Z,98076.25
2022-08-04T07:41:40.387Z,98077.25
2022-08-04T07:44:07.942Z,98077.97
2022-08-04T07:46:35.173Z,98073.94
2022-08-04T07:49:01.792Z,98069.72
2022-08-04T07:51:30.420Z,98063.22
2022-08-04T07:53:57.812Z,98072.19
2022-08-04T07:56:26.376Z,98071.94
2022-08-04T07:58:53.110Z,98069.31
2022-08-04T08:01:19.909Z,98063.66
2022-08-04T08:03:47.356Z,98066.13
2022-08-04T08:06:17.811Z,98063.44
2022-08-04T08:09:00.934Z,98060.22
2022-08-04T08:12:35.502Z,98054.19
2022-08-04T08:14:25.641Z,98055.53
2022-08-04T08:16:52.332Z,98053.09
2022-08-04T08:19:18.973Z,98055.81
2022-08-04T08:21:59.606Z,98059.06
2022-08-04T08:24:28.457Z,98052.72
2022-08-04T08:26:56.809Z,98043.09
2022-08-04T08:29:24.616Z,98051.25
2022-08-04T08:31:56.639Z,98048.16
2022-08-04T08:34:28.029Z,98043.13
2022-08-04T08:37:04.289Z,98049.31
2022-08-04T08:39:45.101Z,98042.75
2022-08-04T08:42:50.326Z,98050.00
2022-08-04T08:45:28.673Z,98048.81
2022-08-04T08:48:46.709Z,98049.56
2022-08-04T08:51:40.353Z,98046.00
2022-08-04T08:54:32.658Z,98045.59
2022-08-04T08:57:24.548Z,98047.69
2022-08-04T09:00:03.209Z,98041.63
2022-08-04T09:02:41.933Z,98040.84
2022-08-04T09:05:24.804Z,98048.75
2022-08-04T09:08:09.600Z,98046.41
2022-08-04T09:10:46.470Z,98041.97
2022-08-04T09:13:48.351Z,98041.59
2022-08-04T09:16:17.853Z,98043.56
2022-08-04T09:18:55.129Z,98037.53
2022-08-04T09:21:38.394Z,98041.25
2022-08-04T09:24:35.189Z,98036.81
2022-08-04T09:27:28.662Z,98047.28
2022-08-04T09:30:02.071Z,98045.88
2022-08-04T09:32:38.638Z,98039.81
2022-08-04T09:35:20.280Z,98043.81
2022-08-04T09:38:26.446Z,98046.81
2022-08-04T09:41:20.982Z,98043.47
2022-08-04T09:44:52.268Z,98041.19
2022-08-04T09:47:13.805Z,98042.56
2022-08-04T09:49:45.908Z,98031.03
2022-08-04T09:52:27.943Z,98039.38
2022-08-04T09:55:12.108Z,98032.59
2022-08-04T09:58:00.523Z,98029.78
2022-08-04T10:00:40.849Z,98025.88
2022-08-04T10:03:11.577Z,98025.78
2022-08-04T10:06:11.065Z,98024.47
2022-08-04T10:09:11.651Z,98019.75
2022-08-04T10:12:03.902Z,98016.22
2022-08-04T10:15:08.094Z,98011.50
2022-08-04T10:17:50.384Z,98014.81
2022-08-04T10:20:46.423Z,98009.03
2022-08-04T10:23:56.500Z,98006.84
2022-08-04T10:26:31.736Z,98002.41
2022-08-04T10:29:03.673Z,97999.16
2022-08-04T10:31:34.068Z,97998.03
2022-08-04T10:34:03.223Z,97994.59
2022-08-04T10:36:41.256Z,97992.16
2022-08-04T10:39:42.234Z,97992.34
2022-08-04T10:42:17.556Z,97991.31
2022-08-04T10:44:57.735Z,97980.38
2022-08-04T10:47:26.634Z,97989.09
2022-08-04T10:50:00.527Z,97984.34
2022-08-04T10:52:34.360Z,97989.38
2022-08-04T10:55:07.277Z,97984.25
2022-08-04T10:57:47.324Z,97983.69
2022-08-04T11:00:19.733Z,97977.75
2022-08-04T11:03:05.776Z,97974.44
2022-08-04T11:05:44.412Z,97979.84
2022-08-04T11:08:24.717Z,97977.97
2022-08-04T11:11:22.238Z,97976.38
2022-08-04T11:13:54.674Z,97977.09
2022-08-04T11:16:24.455Z,97982.13
2022-08-04T11:19:08.837Z,97978.78
2022-08-04T11:21:40.348Z,97979.34
2022-08-04T11:24:26.252Z,97972.84
2022-08-04T11:27:01.473Z,97962.47
2022-08-04T11:30:06.517Z,97964.31
2022-08-04T11:32:47.417Z,97969.06
2022-08-04T11:35:27.901Z,97974.91
2022-08-04T11:38:52.477Z,97967.34
2022-08-04T11:41:23.478Z,97967.34
2022-08-04T11:44:03.221Z,97967.75
2022-08-04T11:46:40.047Z,97963.31
2022-08-04T11:49:57.562Z,97967.56
2022-08-04T11:52:22.196Z,97970.06
2022-08-04T11:54:52.738Z,97966.84
2022-08-04T11:57:22.852Z,97964.34
2022-08-04T12:00:07.750Z,97963.38
2022-08-04T12:02:57.224Z,97963.09
2022-08-04T12:05:37.865Z,97958.03
2022-08-04T12:08:22.279Z,97960.97
2022-08-04T12:11:11.015Z,97959.06
2022-08-04T12:14:05.046Z,97969.47
2022-08-04T12:16:53.989Z,97950.88
2022-08-04T12:19:54.730Z,97953.47
2022-08-04T12:22:25.116Z,97952.50
2022-08-04T12:25:08.063Z,97949.34
2022-08-04T12:27:42.902Z,97952.25
2022-08-04T12:30:59.636Z,97945.38
2022-08-04T12:34:03.021Z,97945.97
2022-08-04T12:36:20.947Z,97948.50
2022-08-04T12:39:10.387Z,97935.84
2022-08-04T12:41:42.285Z,97933.75
2022-08-04T12:44:36.537Z,97939.59
2022-08-04T12:47:36.493Z,97933.34
2022-08-04T12:49:48.131Z,97940.13
2022-08-04T12:52:51.806Z,97938.66
2022-08-04T12:55:15.592Z,97941.50
2022-08-04T12:57:42.791Z,97928.13
2022-08-04T13:00:10.886Z,97930.28
2022-08-04T13:02:48.127Z,97923.66
2022-08-04T13:05:17.118Z,97914.66
2022-08-04T13:07:53.317Z,97919.19
2022-08-04T13:10:30.393Z,97915.69
2022-08-04T13:12:59.202Z,97910.84
2022-08-04T13:15:28.008Z,97915.28
2022-08-04T13:18:05.231Z,97910.94
2022-08-04T13:20:42.449Z,97906.16
2022-08-04T13:23:12.347Z,97910.19
2022-08-04T13:26:45.048Z,97908.88
2022-08-04T13:28:32.312Z,97902.50
2022-08-04T13:31:00.647Z,97899.69
2022-08-04T13:33:36.072Z,97896.16
2022-08-04T13:36:03.869Z,97892.78
2022-08-04T13:38:31.520Z,97892.06
2022-08-04T13:41:02.449Z,97891.63
2022-08-04T13:44:16.492Z,97889.59
2022-08-04T13:46:27.787Z,97883.28
2022-08-04T13:52:04.672Z,97880.69
2022-08-04T13:54:45.129Z,97878.56
2022-08-04T13:57:15.922Z,97883.94
2022-08-04T13:59:45.798Z,97876.66
2022-08-04T14:02:26.173Z,97880.88
2022-08-04T14:04:57.241Z,97871.56
2022-08-04T14:07:25.699Z,97869.31
2022-08-04T14:10:02.921Z,97863.03
2022-08-04T14:12:45.830Z,97865.97
2022-08-04T14:15:54.946Z,97851.91
2022-08-04T14:18:25.664Z,97858.56
2022-08-04T14:21:09.319Z,97864.66
2022-08-04T14:23:47.212Z,97849.69
2022-08-04T14:26:18.840Z,97851.38
2022-08-04T14:29:25.475Z,97851.75
2022-08-04T14:31:32.354Z,97857.75
2022-08-04T14:34:04.345Z,97843.69
2022-08-04T14:36:49.589Z,97849.56
2022-08-04T14:40:07.885Z,97848.66
2022-08-04T14:42:54.696Z,97844.56
2022-08-04T14:45:37.330Z,97847.44
2022-08-04T14:48:18.802Z,97851.31
2022-08-04T14:50:48.410Z,97842.91
2022-08-04T14:53:17.361Z,97846.28
2022-08-04T14:55:56.805Z,97848.75
2022-08-04T14:58:35.009Z,97841.66
2022-08-04T15:01:10.295Z,97844.00
2022-08-04T15:03:50.133Z,97838.28
2022-08-04T15:06:23.219Z,97834.34
2022-08-04T15:08:51.241Z,97837.22
2022-08-04T15:11:23.171Z,97831.13
2022-08-04T15:13:50.582Z,97826.94
2022-08-04T15:16:17.351Z,97825.66
2022-08-04T15:18:44.138Z,97834.66
2022-08-04T15:21:16.043Z,97832.81
2022-08-04T15:23:42.683Z,97823.31
2022-08-04T15:26:15.642Z,97823.28
2022-08-04T15:28:48.783Z,97828.28
2022-08-04T15:32:05.338Z,97827.22
2022-08-04T15:34:02.636Z,97832.25
2022-08-04T15:36:56.297Z,97828.72
2022-08-04T15:39:39.214Z,97826.31
2022-08-04T15:42:24.047Z,97827.03
2022-08-04T15:45:13.693Z,97825.16
2022-08-04T15:47:40.947Z,97815.06
2022-08-04T15:50:12.222Z,97821.31
2022-08-04T15:53:01.206Z,97820.53
2022-08-04T15:55:39.586Z,97820.97
2022-08-04T15:58:07.964Z,97816.00
2022-08-04T16:00:49.858Z,97807.94
2022-08-04T16:03:58.502Z,97816.94
2022-08-04T16:06:20.872Z,97815.25
2022-08-04T16:08:47.289Z,97810.22
2022-08-04T16:11:31.499Z,97805.47
2022-08-04T16:13:58.653Z,97803.09
2022-08-04T16:16:31.513Z,97793.84
2022-08-04T16:19:16.763Z,97797.03
2022-08-04T16:21:54.491Z,97799.00
2022-08-04T16:24:21.887Z,97801.91
2022-08-04T16:27:08.454Z,97795.84
2022-08-04T16:29:38.068Z,97790.13
2022-08-04T16:32:04.780Z,97797.16
2022-08-04T16:34:49.857Z,97791.50
2022-08-04T16:37:19.065Z,97789.41
2022-08-04T16:39:49.975Z,97782.00
2022-08-04T16:42:30.293Z,97781.25
2022-08-04T16:45:09.228Z,97782.81
2022-08-04T16:47:48.363Z,97781.03
2022-08-04T16:50:23.032Z,97781.66
2022-08-04T16:52:54.229Z,97779.63
2022-08-04T16:55:25.532Z,97770.81
2022-08-04T16:57:55.858Z,97777.19
2022-08-04T17:00:36.192Z,97777.78
2022-08-04T17:03:06.811Z,97777.56
2022-08-04T17:05:39.409Z,97770.72
2022-08-04T17:10:55.998Z,97763.53
2022-08-04T17:14:02.466Z,97769.38
2022-08-04T17:16:18.818Z,97769.66
2022-08-04T17:18:51.083Z,97765.50
2022-08-04T17:21:30.224Z,97755.22
2022-08-04T17:24:13.130Z,97755.91
2022-08-04T17:26:45.259Z,97764.59
2022-08-04T17:29:20.066Z,97761.38
2022-08-04T17:31:46.863Z,97761.53
2022-08-04T17:34:16.752Z,97755.03
2022-08-04T17:36:46.153Z,97757.31
2022-08-04T17:39:21.358Z,97756.66
2022-08-04T17:41:49.061Z,97751.22
2022-08-04T17:44:16.614Z,97752.53
2022-08-04T17:46:48.423Z,97754.84
2022-08-04T17:49:18.215Z,97753.47
2022-08-04T17:52:05.298Z,97756.63
2022-08-04T17:54:37.293Z,97761.97
2022-08-04T17:57:20.137Z,97757.13
2022-08-04T17:59:59.296Z,97762.84
2022-08-04T18:02:32.533Z,97762.22
2022-08-04T18:05:07.884Z,97765.63
2022-08-04T18:08:38.682Z,97762.53
2022-08-04T18:10:52.651Z,97765.94
2022-08-04T18:13:26.948Z,97773.97
2022-08-04T18:16:09.010Z,97772.97
2022-08-04T18:18:41.393Z,97773.31
2022-08-04T18:21:15.719Z,97775.03
2022-08-04T18:23:51.109Z,97772.69
2022-08-04T18:26:18.192Z,97771.88
2022-08-04T18:28:50.618Z,97779.00
2022-08-04T18:31:17.152Z,97783.97
2022-08-04T18:33:43.743Z,97779.94
2022-08-04T18:36:34.558Z,97784.06
2022-08-04T18:39:12.444Z,97780.28
2022-08-04T18:42:01.771Z,97783.88
2022-08-04T18:44:51.927Z,97783.94
2022-08-04T18:47:23.093Z,97791.25
2022-08-04T18:50:40.214Z,97782.63
2022-08-04T18:52:42.105Z,97784.81
2022-08-04T18:55:13.299Z,97790.00
2022-08-04T18:58:01.462Z,97789.47
2022-08-04T19:00:32.735Z,97785.66
2022-08-04T19:03:01.164Z,97791.97
2022-08-04T19:05:37.792Z,97799.03
2022-08-04T19:10:59.649Z,97802.31
2022-08-04T19:13:27.857Z,97800.97
2022-08-04T19:15:55.675Z,97798.81
2022-08-04T19:18:25.583Z,97803.44
2022-08-04T19:20:55.383Z,97813.75
2022-08-04T19:24:29.532Z,97818.59
2022-08-04T19:26:23.744Z,97813.16
2022-08-04T19:28:54.991Z,97822.16
2022-08-04T19:31:28.203Z,97824.84
2022-08-04T19:34:04.730Z,97824.03
2022-08-04T19:36:34.544Z,97829.16
2022-08-04T19:39:11.604Z,97840.81
2022-08-04T19:42:04.835Z,97834.50
2022-08-04T19:44:25.098Z,97840.97
2022-08-04T19:46:57.176Z,97839.59
2022-08-04T19:50:03.202Z,97836.03
2022-08-04T19:52:14.596Z,97839.06
2022-08-04T19:55:00.188Z,97840.69
2022-08-04T19:57:37.976Z,97847.50
2022-08-04T20:00:10.088Z,97846.16
2022-08-04T20:02:37.332Z,97851.00
2022-08-04T20:05:08.646Z,97852.38
2022-08-04T20:07:35.653Z,97852.38
2022-08-04T20:10:04.804Z,97855.38
2022-08-04T20:12:31.872Z,97855.88
2022-08-04T20:14:59.604Z,97855.03
2022-08-04T20:20:13.514Z,97860.19
2022-08-04T20:22:52.854Z,97857.47
2022-08-04T20:25:36.741Z,97863.41
2022-08-04T20:28:04.907Z,97855.25
2022-08-04T20:30:33.160Z,97855.78
2022-08-04T20:33:01.128Z,97861.69
2022-08-04T20:35:29.316Z,97860.88
2022-08-04T20:38:00.749Z,97861.88
2022-08-04T20:40:28.756Z,97867.00
2022-08-04T20:42:57.412Z,97863.72
2022-08-04T20:45:56.861Z,97865.03
2022-08-04T20:48:11.673Z,97862.25
2022-08-04T20:50:38.218Z,97861.94
2022-08-04T20:53:16.844Z,97862.22
2022-08-04T20:55:47.271Z,97857.63
2022-08-04T20:58:27.591Z,97864.28
2022-08-04T21:00:54.900Z,97861.84
2022-08-04T21:03:21.516Z,97862.06
2022-08-04T21:06:08.522Z,97854.41
2022-08-04T21:08:35.081Z,97858.09
2022-08-04T21:11:03.161Z,97860.56
2022-08-04T21:13:52.263Z,97850.78
2022-08-04T21:16:55.072Z,97856.25
2022-08-04T21:19:13.484Z,97870.16
2022-08-04T21:21:41.328Z,97866.66
2022-08-04T21:24:09.317Z,97855.34
2022-08-04T21:26:36.053Z,97863.97
2022-08-04T21:29:04.624Z,97861.81
2022-08-04T21:31:32.545Z,97866.97
2022-08-04T21:34:17.099Z,97857.72
2022-08-04T21:37:03.907Z,97860.94
2022-08-04T21:39:32.635Z,97856.59
2022-08-04T21:44:46.567Z,97862.19
2022-08-04T21:47:45.916Z,97862.31
2022-08-04T21:50:06.603Z,97850.59
2022-08-04T21:52:33.413Z,97859.16
2022-08-04T21:54:59.967Z,97851.00
2022-08-04T21:57:27.480Z,97846.59
2022-08-04T21:59:54.695Z,97853.09
2022-08-04T22:02:21.924Z,97847.38
2022-08-04T22:04:49.510Z,97855.44
2022-08-04T22:07:16.899Z,97852.16
2022-08-04T22:10:02.283Z,97852.94
2022-08-04T22:12:30.378Z,97852.31
2022-08-04T22:14:59.709Z,97851.41
2022-08-04T22:17:35.211Z,97855.94
2022-08-04T22:20:03.935Z,97851.56
2022-08-04T22:22:34.347Z,97852.06
2022-08-04T22:25:12.424Z,97855.13
2022-08-04T22:28:00.837Z,97858.06
2022-08-04T22:30:33.160Z,97844.50
2022-08-04T22:33:04.624Z,97847.97
2022-08-04T22:35:43.688Z,97849.59
2022-08-04T22:38:24.080Z,97850.09
2022-08-04T22:41:05.419Z,97846.31
2022-08-04T22:43:34.549Z,97846.66
2022-08-04T22:46:05.408Z,97844.44
2022-08-04T22:48:34.766Z,97833.41
2022-08-04T22:51:03.008Z,97840.94
2022-08-04T22:53:30.377Z,97839.00
2022-08-04T22:56:09.781Z,97834.66
2022-08-04T22:58:40.085Z,97847.66
2022-08-04T23:01:08.290Z,97847.66
2022-08-04T23:03:37.501Z,97845.59
2022-08-04T23:06:10.957Z,97844.44
2022-08-04T23:08:39.213Z,97837.34
2022-08-04T23:11:10.628Z,97840.25
2022-08-04T23:13:37.731Z,97844.34
2022-08-04T23:16:10.197Z,97848.84
2022-08-04T23:18:40.221Z,97840.13
2022-08-04T23:21:09.843Z,97841.53
2022-08-04T23:23:37.082Z,97843.34
2022-08-04T23:26:15.789Z,97842.44
2022-08-04T23:28:43.310Z,97839.88
2022-08-04T23:31:10.059Z,97841.97
2022-08-04T23:33:51.421Z,97837.53
2022-08-04T23:36:26.412Z,97841.38
2022-08-04T23:39:03.925Z,97842.56
2022-08-04T23:41:55.460Z,97850.00
2022-08-04T23:44:25.119Z,97847.47
2022-08-04T23:47:04.004Z,97835.47
2022-08-04T23:49:43.543Z,97839.75
2022-08-04T23:52:28.140Z,97831.31
2022-08-04T23:54:58.649Z,97842.63
2022-08-04T23:58:02.572Z,97844.19
